Seamusic — 9HZL9 — position and weather

sailwx.info

Track history (hours):
 
Tides and Currents Weather Stations Pressure Air Temp Water Temp Dewpoint Dewpoint Depression Visibility Wind Speed Wind Dir Waves Ship Positions

Seamusic

Last reported at 2017-Nov-22 22:27 UTC. Time now 2017-Nov-24 21:57 UTC.
Position N 36°05' E 024°12'.

Length 250 m; draft 13.6 m.

Type: Ship (hazmat cat D). MMSI: 249746000.

Date/timePositionNaut miles runAvg speedWind from/ knotsBaromVisibWave heightAir tempDewpointWater temp
2017-Nov-22 22:27N 36°05' E 024°12'510.9
2017-Nov-22 22:00N 36°05' E 024°18'611.1
2017-Nov-22 21:30N 36°06' E 024°24'511.0
2017-Nov-22 21:00N 36°06' E 024°31'611.0
2017-Nov-22 20:30N 36°07' E 024°38'611.2
2017-Nov-22 20:00N 36°07' E 024°45'611.5
2017-Nov-22 19:30N 36°08' E 024°52'  
2017-Nov-18 04:25N 33°21' E 033°48'610.3
2017-Nov-18 03:50N 33°16' E 033°45'410.1
2017-Nov-18 03:24N 33°12' E 033°44'410.4
2017-Nov-18 03:00N 33°07' E 033°44'510.4
2017-Nov-18 02:30N 33°02' E 033°45'510.3
2017-Nov-18 02:00N 32°57' E 033°46'  
2017-Nov-14 02:29N 37°25' E 025°55'511.3
2017-Nov-14 02:00N 37°29' E 025°53'611.2
2017-Nov-14 01:30N 37°35' E 025°52'611.4
2017-Nov-14 01:00N 37°41' E 025°51'  
Track history (hours):
 
Tides and Currents Weather Stations Pressure Air Temp Water Temp Dewpoint Dewpoint Depression Visibility Wind Speed Wind Dir Waves Ship Positions

Seamusic

Last reported at 2017-Nov-22 22:27 UTC. Time now 2017-Nov-24 21:57 UTC.
Position N 36°05' E 024°12'.

Length 250 m; draft 13.6 m.

Type: Ship (hazmat cat D). MMSI: 249746000.

Date/timePositionNaut miles runAvg speedWind from/ knotsBaromVisibWave heightAir tempDewpointWater temp
2017-Nov-22 22:27N 36°05' E 024°12'510.9
2017-Nov-22 22:00N 36°05' E 024°18'611.1
2017-Nov-22 21:30N 36°06' E 024°24'511.0
2017-Nov-22 21:00N 36°06' E 024°31'611.0
2017-Nov-22 20:30N 36°07' E 024°38'611.2
2017-Nov-22 20:00N 36°07' E 024°45'611.5
2017-Nov-22 19:30N 36°08' E 024°52'  
2017-Nov-18 04:25N 33°21' E 033°48'610.3
2017-Nov-18 03:50N 33°16' E 033°45'410.1
2017-Nov-18 03:24N 33°12' E 033°44'410.4
2017-Nov-18 03:00N 33°07' E 033°44'510.4
2017-Nov-18 02:30N 33°02' E 033°45'510.3
2017-Nov-18 02:00N 32°57' E 033°46'  
2017-Nov-14 02:29N 37°25' E 025°55'511.3
2017-Nov-14 02:00N 37°29' E 025°53'611.2
2017-Nov-14 01:30N 37°35' E 025°52'611.4
2017-Nov-14 01:00N 37°41' E 025°51'  

Dump ship's entire track history